Time;durP1;ratioP1;P1;durP2;ratioP2;P2;SDS_P1;SDS_P2;PMS_P1;PMS_P2;Temp;Humidity;BMP_temperature;BMP_pressure;BME280_temperature;BME280_humidity;BME280_pressure;Samples;Min_cycle;Max_cycle;Signal;HPM_P1;HPM_P2
2022/04/07 00:00:48;;;;;;;5.30;4.75;;;;;;;8.96;65.89;98861.81;5002624;28;20502;-28
2022/04/07 00:03:14;;;;;;;6.82;5.30;;;;;;;8.94;66.53;98858.38;5035004;28;20034;-28
2022/04/07 00:05:39;;;;;;;6.55;4.40;;;;;;;8.87;66.67;98848.97;5021103;28;20049;-28
2022/04/07 00:08:05;;;;;;;8.75;4.55;;;;;;;8.88;66.47;98837.53;5018198;28;20099;-28
2022/04/07 00:10:31;;;;;;;8.13;5.10;;;;;;;8.88;66.66;98837.53;5037103;28;20025;-28
2022/04/07 00:12:57;;;;;;;5.80;4.82;;;;;;;8.87;66.63;98841.06;5033070;28;20056;-28
2022/04/07 00:15:23;;;;;;;5.60;5.05;;;;;;;8.89;66.69;98844.50;5037333;28;20021;-28
2022/04/07 00:17:48;;;;;;;7.15;5.15;;;;;;;8.83;66.95;98840.28;5017062;28;20017;-28
2022/04/07 00:20:14;;;;;;;7.18;5.40;;;;;;;8.77;67.22;98830.84;5016220;28;20033;-28
2022/04/07 00:22:41;;;;;;;7.07;5.45;;;;;;;8.82;66.93;98834.19;5016959;28;20032;-28
2022/04/07 00:25:08;;;;;;;5.97;5.10;;;;;;;8.82;67.16;98831.56;5019779;28;20025;-28
2022/04/07 00:27:33;;;;;;;6.35;5.05;;;;;;;8.81;67.08;98823.72;4985633;28;20390;-29
2022/04/07 00:29:59;;;;;;;9.57;4.97;;;;;;;8.81;67.10;98821.94;5004948;28;20036;-26
2022/04/07 00:32:24;;;;;;;7.20;4.70;;;;;;;8.79;67.16;98817.66;5038910;28;20053;-29
2022/04/07 00:34:54;;;;;;;8.98;5.57;;;;;;;8.75;67.36;98821.28;5043730;28;20436;-26
2022/04/07 00:37:24;;;;;;;6.97;5.13;;;;;;;8.73;67.39;98810.81;5015735;28;20519;-26
2022/04/07 00:39:52;;;;;;;5.45;4.82;;;;;;;8.72;67.34;98802.09;5026655;28;20028;-26
2022/04/07 00:42:19;;;;;;;6.28;5.03;;;;;;;8.73;67.43;98811.69;5029829;28;20040;-27
2022/04/07 00:44:46;;;;;;;6.50;4.55;;;;;;;8.68;67.65;98810.97;5024598;28;20048;-27
2022/04/07 00:47:12;;;;;;;7.07;4.63;;;;;;;8.67;67.29;98808.41;5047310;28;20040;-28
2022/04/07 00:49:37;;;;;;;9.35;5.57;;;;;;;8.68;67.38;98805.72;5043350;28;20025;-27
2022/04/07 00:52:03;;;;;;;6.10;4.80;;;;;;;8.69;67.32;98803.94;5032089;28;20542;-26
2022/04/07 00:54:30;;;;;;;6.15;4.95;;;;;;;8.66;67.22;98790.88;5033407;28;20390;-29
2022/04/07 00:56:55;;;;;;;5.20;4.07;;;;;;;8.64;67.50;98797.97;5036856;28;20104;-29
2022/04/07 00:59:22;;;;;;;6.65;4.57;;;;;;;8.59;67.72;98796.34;5016088;28;20037;-29
2022/04/07 01:01:48;;;;;;;6.53;4.80;;;;;;;8.55;67.91;98785.97;5017416;28;20028;-28
2022/04/07 01:04:16;;;;;;;6.45;4.70;;;;;;;8.50;68.01;98791.34;5020253;28;20057;-29
2022/04/07 01:06:44;;;;;;;8.75;4.60;;;;;;;8.49;68.09;98779.09;5014572;28;20036;-27
2022/04/07 01:09:10;;;;;;;6.72;5.75;;;;;;;8.43;68.20;98780.16;5041558;28;20017;-26
2022/04/07 01:11:39;;;;;;;6.15;4.65;;;;;;;8.46;68.14;98773.94;5030346;28;20066;-26
2022/04/07 01:14:05;;;;;;;7.45;4.63;;;;;;;8.46;68.14;98776.56;5015321;28;20485;-28
2022/04/07 01:16:31;;;;;;;4.63;4.18;;;;;;;8.43;68.41;98766.16;5033433;28;20025;-28
2022/04/07 01:18:59;;;;;;;5.35;4.60;;;;;;;8.43;68.10;98768.78;5038792;28;20025;-28
2022/04/07 01:21:27;;;;;;;4.75;4.25;;;;;;;8.40;68.34;98774.16;5040805;28;20025;-28
2022/04/07 01:24:13;;;;;;;6.65;4.65;;;;;;;8.37;68.37;98769.81;5043250;28;20027;-26
2022/04/07 01:26:43;;;;;;;7.00;4.70;;;;;;;8.38;68.30;98765.44;5038392;28;20033;-29
2022/04/07 01:29:14;;;;;;;5.35;4.85;;;;;;;8.38;68.21;98762.81;5032701;28;20117;-29
2022/04/07 01:31:40;;;;;;;4.70;4.25;;;;;;;8.36;68.00;98756.78;5031696;28;20112;-29
2022/04/07 01:34:09;;;;;;;6.25;4.43;;;;;;;8.33;68.06;98748.06;5013556;28;20136;-29
2022/04/07 01:36:37;;;;;;;6.03;4.32;;;;;;;8.34;67.83;98757.66;5015199;28;20112;-29
2022/04/07 01:39:03;;;;;;;9.20;5.00;;;;;;;8.32;68.04;98756.84;5030224;28;20032;-29
2022/04/07 01:41:29;;;;;;;5.28;4.13;;;;;;;8.30;67.70;98758.66;5049034;28;20091;-28
2022/04/07 01:43:57;;;;;;;6.07;4.93;;;;;;;8.30;67.77;98757.81;5022978;28;20463;-28
2022/04/07 01:46:22;;;;;;;8.77;4.68;;;;;;;8.27;67.79;98763.16;5050810;28;20036;-28
2022/04/07 01:48:48;;;;;;;5.15;4.05;;;;;;;8.26;67.77;98757.03;5041191;28;20033;-28
2022/04/07 01:51:14;;;;;;;6.15;4.18;;;;;;;8.24;67.75;98750.97;5024256;28;20099;-28
2022/04/07 01:53:40;;;;;;;4.30;3.90;;;;;;;8.22;68.14;98744.91;5028879;28;20388;-28
2022/04/07 01:56:06;;;;;;;5.63;4.47;;;;;;;8.20;67.82;98741.44;5023842;28;20131;-28
2022/04/07 01:58:32;;;;;;;5.03;4.03;;;;;;;8.18;68.04;98735.41;5045016;28;20489;-28
2022/04/07 02:00:58;;;;;;;5.35;4.43;;;;;;;8.18;68.02;98738.03;5010144;28;20033;-28
2022/04/07 02:03:24;;;;;;;4.78;4.30;;;;;;;8.17;68.01;98723.19;5051489;28;20021;-28
2022/04/07 02:05:49;;;;;;;4.25;3.80;;;;;;;8.13;68.09;98724.19;5048172;28;20036;-28
2022/04/07 02:08:15;;;;;;;4.93;4.45;;;;;;;8.15;68.38;98724.97;5033152;28;20017;-28
2022/04/07 02:10:41;;;;;;;5.20;4.13;;;;;;;8.14;67.99;98713.63;5013043;28;20079;-28
2022/04/07 02:13:07;;;;;;;6.53;5.22;;;;;;;8.15;68.39;98717.09;5042874;28;20017;-28
2022/04/07 02:15:33;;;;;;;4.95;4.13;;;;;;;8.14;68.58;98705.72;5046466;28;20505;-28
2022/04/07 02:18:01;;;;;;;5.90;4.18;;;;;;;8.12;69.02;98704.06;5048057;28;20048;-28
2022/04/07 02:20:27;;;;;;;4.22;3.83;;;;;;;8.13;69.08;98693.53;5026086;28;20037;-28
2022/04/07 02:22:53;;;;;;;5.68;4.57;;;;;;;8.15;69.02;98696.09;5044187;28;20021;-28
2022/04/07 02:25:23;;;;;;;5.55;4.80;;;;;;;8.15;69.00;98696.97;5047790;28;20020;-26
2022/04/07 02:27:49;;;;;;;6.55;4.40;;;;;;;8.14;68.71;98697.00;5042337;28;20031;-28
2022/04/07 02:30:14;;;;;;;4.63;3.88;;;;;;;8.14;69.52;98689.97;5042743;28;20030;-28
2022/04/07 02:32:43;;;;;;;5.43;4.15;;;;;;;8.12;69.81;98688.31;5037381;28;20027;-29
2022/04/07 02:35:10;;;;;;;4.68;3.95;;;;;;;8.09;69.45;98682.25;5016201;28;20114;-29
2022/04/07 02:37:35;;;;;;;4.97;4.55;;;;;;;8.11;69.66;98682.22;5018289;28;20434;-29
2022/04/07 02:40:01;;;;;;;5.90;4.28;;;;;;;8.07;69.95;98678.81;5019228;28;20112;-29
2022/04/07 02:42:26;;;;;;;5.22;4.00;;;;;;;8.07;69.58;98667.47;5042262;28;20409;-29
2022/04/07 02:44:52;;;;;;;4.45;4.05;;;;;;;8.06;69.56;98669.22;5046448;28;20025;-30
2022/04/07 02:47:17;;;;;;;5.07;3.88;;;;;;;8.08;69.52;98664.78;5042315;28;20025;-29
2022/04/07 02:49:43;;;;;;;4.85;3.97;;;;;;;8.06;69.71;98661.34;5041465;28;20026;-30
2022/04/07 02:52:09;;;;;;;4.70;4.20;;;;;;;8.06;69.92;98650.84;5012463;28;20025;-30
2022/04/07 02:54:34;;;;;;;5.30;4.18;;;;;;;8.08;69.70;98646.38;5033185;28;20511;-30
2022/04/07 02:57:01;;;;;;;5.55;3.80;;;;;;;8.07;69.36;98643.84;5047021;28;20065;-30
2022/04/07 02:59:27;;;;;;;3.95;3.53;;;;;;;8.06;70.34;98640.34;5013591;28;20021;-27
2022/04/07 03:01:56;;;;;;;4.57;4.18;;;;;;;8.05;70.36;98641.25;5044689;28;20025;-30
2022/04/07 03:04:24;;;;;;;5.95;4.40;;;;;;;8.05;70.32;98649.13;5050243;28;20024;-28
2022/04/07 03:06:52;;;;;;;3.95;3.47;;;;;;;8.01;70.65;98637.00;5042558;28;20394;-28
2022/04/07 03:09:18;;;;;;;4.90;4.40;;;;;;;8.03;70.78;98637.81;5039178;28;20040;-26
2022/04/07 03:11:44;;;;;;;4.28;3.85;;;;;;;8.06;70.24;98639.47;5030280;28;20029;-27
2022/04/07 03:14:09;;;;;;;5.40;3.92;;;;;;;8.07;71.28;98628.09;5041384;28;20043;-27
2022/04/07 03:16:35;;;;;;;6.28;4.18;;;;;;;8.08;71.70;98625.38;5009122;28;20025;-27
2022/04/07 03:19:00;;;;;;;4.85;4.07;;;;;;;8.13;70.49;98619.16;5023443;28;20016;-27
2022/04/07 03:21:26;;;;;;;4.50;4.10;;;;;;;8.12;71.85;98627.91;5047502;28;20457;-27
2022/04/07 03:23:51;;;;;;;6.20;3.85;;;;;;;8.14;71.82;98631.38;5044084;28;20025;-27
2022/04/07 03:26:16;;;;;;;4.88;4.10;;;;;;;8.15;71.64;98630.44;5024073;28;20027;-27
2022/04/07 03:28:42;;;;;;;7.20;4.22;;;;;;;8.17;71.03;98632.13;5041907;28;20560;-27
2022/04/07 03:31:07;;;;;;;5.50;4.07;;;;;;;8.18;70.48;98622.47;5036429;28;20047;-26
2022/04/07 03:33:35;;;;;;;5.30;4.10;;;;;;;8.20;71.10;98615.41;5037261;28;20461;-27
2022/04/07 03:36:04;;;;;;;4.22;3.85;;;;;;;8.22;70.89;98618.84;5046540;22;20041;-27
2022/04/07 03:38:30;;;;;;;4.50;3.90;;;;;;;8.22;71.41;98613.59;5036240;28;20040;-28
2022/04/07 03:40:55;;;;;;;4.45;4.05;;;;;;;8.23;70.82;98603.97;5036836;28;20067;-28
2022/04/07 03:43:21;;;;;;;5.15;4.57;;;;;;;8.23;70.53;98609.22;5039299;28;20022;-28
2022/04/07 03:45:47;;;;;;;4.68;4.22;;;;;;;8.23;69.88;98599.53;5042787;28;20030;-28
2022/04/07 03:48:12;;;;;;;4.07;3.63;;;;;;;8.25;71.17;98597.75;5040647;28;20120;-28
2022/04/07 03:50:38;;;;;;;4.38;3.97;;;;;;;8.26;70.50;98583.69;5033977;28;20072;-28
2022/04/07 03:53:04;;;;;;;4.43;3.72;;;;;;;8.28;70.30;98589.78;5015245;28;20056;-28
2022/04/07 03:55:30;;;;;;;5.90;3.85;;;;;;;8.30;70.71;98585.31;5030228;28;20021;-28
2022/04/07 03:57:56;;;;;;;5.07;4.30;;;;;;;8.31;70.99;98587.00;5017878;28;20029;-28
2022/04/07 04:00:22;;;;;;;3.88;3.47;;;;;;;8.33;71.06;98568.59;5018886;28;20486;-28
2022/04/07 04:02:48;;;;;;;4.97;4.35;;;;;;;8.32;70.81;98562.50;5044360;28;20022;-28
2022/04/07 04:05:14;;;;;;;4.95;3.92;;;;;;;8.32;71.10;98557.22;5026603;28;20457;-28
2022/04/07 04:07:39;;;;;;;4.65;4.22;;;;;;;8.37;71.24;98558.84;5038959;28;20049;-28
2022/04/07 04:10:05;;;;;;;4.65;3.58;;;;;;;8.38;71.62;98558.78;5034869;28;20047;-28
2022/04/07 04:12:31;;;;;;;5.25;4.47;;;;;;;8.41;72.05;98552.56;5040518;28;20059;-28
2022/04/07 04:14:56;;;;;;;4.63;4.15;;;;;;;8.43;72.17;98551.59;5025124;28;20556;-28
2022/04/07 04:17:22;;;;;;;5.35;3.83;;;;;;;8.47;72.05;98534.81;5042091;28;20036;-28
2022/04/07 04:19:47;;;;;;;4.70;4.10;;;;;;;8.51;72.38;98538.22;5043627;28;20040;-28
2022/04/07 04:22:12;;;;;;;4.43;4.03;;;;;;;8.51;72.23;98522.44;5042688;28;20032;-28
2022/04/07 04:24:38;;;;;;;5.53;3.65;;;;;;;8.54;72.14;98519.72;5045513;28;20124;-28
2022/04/07 04:27:05;;;;;;;5.90;4.72;;;;;;;8.56;72.47;98517.91;5040717;28;20025;-28
2022/04/07 04:29:30;;;;;;;5.63;4.15;;;;;;;8.62;72.09;98510.72;5043754;28;20021;-28
2022/04/07 04:31:56;;;;;;;5.10;4.30;;;;;;;8.63;72.09;98517.72;5031182;28;20027;-28
2022/04/07 04:34:21;;;;;;;5.93;4.00;;;;;;;8.64;72.33;98511.53;5030194;28;20031;-28
2022/04/07 04:36:46;;;;;;;4.97;3.38;;;;;;;8.66;72.42;98518.44;5033206;28;20045;-28
2022/04/07 04:39:12;;;;;;;4.68;4.22;;;;;;;8.69;71.79;98514.84;5029855;28;20017;-28
2022/04/07 04:41:37;;;;;;;3.80;3.42;;;;;;;8.70;72.16;98524.44;5031822;28;20025;-28
2022/04/07 04:44:10;;;;;;;4.70;3.60;;;;;;;8.72;71.85;98518.22;5063908;28;20391;-25
2022/04/07 04:46:36;;;;;;;4.30;3.70;;;;;;;8.73;71.64;98508.56;5036224;28;20504;-25
2022/04/07 04:49:01;;;;;;;4.25;3.55;;;;;;;8.76;71.83;98510.22;5035585;28;20033;-25
2022/04/07 04:51:27;;;;;;;3.75;3.28;;;;;;;8.79;71.70;98518.84;5036106;28;20071;-25
2022/04/07 04:53:53;;;;;;;4.20;3.70;;;;;;;8.82;71.30;98508.22;5032939;28;20029;-25
2022/04/07 04:56:20;;;;;;;5.22;3.42;;;;;;;8.83;71.37;98504.69;5035299;28;20100;-25
2022/04/07 04:58:46;;;;;;;4.05;3.35;;;;;;;8.87;71.09;98504.56;5032506;28;20079;-25
2022/04/07 05:01:11;;;;;;;5.25;3.53;;;;;;;8.90;71.14;98501.84;5038078;28;20029;-25
2022/04/07 05:03:37;;;;;;;4.30;2.95;;;;;;;8.92;70.94;98500.00;5041443;28;20044;-25
2022/04/07 05:06:03;;;;;;;4.85;3.80;;;;;;;8.94;70.95;98496.38;5024713;28;20491;-25
2022/04/07 05:08:28;;;;;;;3.35;3.05;;;;;;;8.97;70.50;98482.28;5044637;28;20537;-25
2022/04/07 05:10:54;;;;;;;3.47;3.17;;;;;;;9.00;70.48;98495.31;5036385;28;20438;-25
2022/04/07 05:13:21;;;;;;;3.58;3.28;;;;;;;9.03;70.40;98495.19;5035984;28;20052;-25
2022/04/07 05:15:47;;;;;;;5.97;3.33;;;;;;;9.04;70.07;98480.28;5038917;28;20055;-25
2022/04/07 05:18:13;;;;;;;3.47;3.17;;;;;;;9.06;70.00;98486.31;5034912;28;20448;-25
2022/04/07 05:20:38;;;;;;;3.00;2.80;;;;;;;9.08;69.96;98488.00;5034827;28;20037;-25
2022/04/07 05:23:04;;;;;;;3.63;3.10;;;;;;;9.09;69.98;98473.06;5041531;28;20025;-25
2022/04/07 05:25:29;;;;;;;4.90;3.22;;;;;;;9.11;69.74;98471.25;5038968;28;20031;-25
2022/04/07 05:27:55;;;;;;;4.60;3.15;;;;;;;9.11;69.78;98481.78;5045722;28;20155;-25
2022/04/07 05:30:20;;;;;;;4.30;3.60;;;;;;;9.16;69.91;98481.56;5033395;28;20032;-24
2022/04/07 05:32:46;;;;;;;4.13;3.17;;;;;;;9.15;69.78;98477.22;5032852;28;20470;-25
2022/04/07 05:35:13;;;;;;;4.95;4.15;;;;;;;9.17;69.72;98470.16;5035254;28;20021;-25
2022/04/07 05:37:39;;;;;;;3.33;2.97;;;;;;;9.19;69.64;98471.81;5034600;28;20099;-25
2022/04/07 05:40:06;;;;;;;3.80;3.38;;;;;;;9.20;69.58;98472.63;5032560;28;20472;-25
2022/04/07 05:42:31;;;;;;;3.47;3.15;;;;;;;9.19;70.73;98486.72;5029915;28;20030;-25
2022/04/07 05:44:57;;;;;;;4.07;3.05;;;;;;;9.18;71.08;98472.72;5033234;28;20040;-25
2022/04/07 05:47:22;;;;;;;4.00;3.53;;;;;;;9.19;71.77;98474.44;5033984;28;20548;-25
2022/04/07 05:49:48;;;;;;;4.28;3.35;;;;;;;9.18;72.33;98469.22;5035324;28;20025;-25
2022/04/07 05:52:14;;;;;;;3.50;3.10;;;;;;;9.18;73.01;98469.22;5033104;28;20017;-25
2022/04/07 05:54:39;;;;;;;3.70;3.40;;;;;;;9.18;73.43;98462.22;5024720;28;20025;-25
2022/04/07 05:57:05;;;;;;;3.60;3.30;;;;;;;9.11;74.25;98471.25;5019779;28;20069;-25
2022/04/07 05:59:31;;;;;;;5.00;3.67;;;;;;;9.12;74.58;98459.81;5020367;28;20022;-25
2022/04/07 06:01:56;;;;;;;4.57;3.35;;;;;;;9.09;74.61;98471.31;5019640;28;20041;-25
2022/04/07 06:04:21;;;;;;;3.05;2.83;;;;;;;9.08;74.65;98450.31;5017572;28;20026;-25
2022/04/07 06:06:47;;;;;;;4.07;3.47;;;;;;;9.08;74.55;98453.81;5020028;28;20467;-25
2022/04/07 06:09:12;;;;;;;4.88;3.72;;;;;;;9.11;74.36;98443.16;5019640;28;20502;-25
2022/04/07 06:11:38;;;;;;;6.03;3.60;;;;;;;9.11;74.70;98451.03;5016253;28;20026;-25
2022/04/07 06:14:03;;;;;;;4.03;3.28;;;;;;;9.09;74.58;98438.88;5018539;28;20029;-25
2022/04/07 06:16:29;;;;;;;5.00;3.70;;;;;;;9.11;74.20;98444.94;5017140;28;20480;-25
2022/04/07 06:18:55;;;;;;;4.18;3.22;;;;;;;9.10;74.14;98433.56;5019182;28;20209;-25
2022/04/07 06:21:23;;;;;;;4.78;3.28;;;;;;;9.12;74.19;98433.50;5018475;28;20020;-25
2022/04/07 06:23:49;;;;;;;3.65;3.15;;;;;;;9.15;72.35;98435.16;5020671;28;20061;-25
2022/04/07 06:26:15;;;;;;;6.13;3.72;;;;;;;9.15;73.11;98437.78;5030298;28;20071;-25
2022/04/07 06:28:42;;;;;;;4.13;3.55;;;;;;;9.17;73.64;98435.97;5030243;28;20029;-25
2022/04/07 06:31:08;;;;;;;4.22;3.70;;;;;;;9.16;73.20;98431.59;5030602;28;20025;-25
2022/04/07 06:33:33;;;;;;;3.70;3.40;;;;;;;9.18;72.56;98429.78;5029361;28;20088;-25
2022/04/07 06:35:59;;;;;;;5.85;3.95;;;;;;;9.18;73.18;98430.66;5026158;28;20033;-25
2022/04/07 06:38:24;;;;;;;3.40;2.85;;;;;;;9.22;73.16;98431.38;5030813;28;20021;-25
2022/04/07 06:40:50;;;;;;;3.33;2.92;;;;;;;9.24;73.16;98433.00;5030792;28;20025;-25
2022/04/07 06:43:15;;;;;;;3.15;2.65;;;;;;;9.29;73.60;98419.69;5030334;28;20112;-25
2022/04/07 06:45:41;;;;;;;2.88;2.47;;;;;;;9.32;74.02;98403.78;5022490;28;20104;-24
2022/04/07 06:48:06;;;;;;;3.30;2.45;;;;;;;9.35;74.33;98402.81;5017094;28;20030;-25
2022/04/07 06:50:32;;;;;;;3.50;2.83;;;;;;;9.41;74.56;98404.31;5022621;28;20029;-24
2022/04/07 06:52:58;;;;;;;2.38;2.00;;;;;;;9.45;75.11;98385.72;5018881;28;20483;-24
2022/04/07 06:55:25;;;;;;;1.73;1.63;;;;;;;9.47;74.79;98383.88;5017030;28;20053;-25
2022/04/07 06:57:54;;;;;;;1.50;1.40;;;;;;;9.52;74.45;98370.53;5016745;28;20055;-25
2022/04/07 07:00:21;;;;;;;3.35;1.92;;;;;;;9.56;74.49;98361.59;5021247;28;20426;-25
2022/04/07 07:02:57;;;;;;;2.78;1.85;;;;;;;9.61;74.65;98359.59;5020023;28;20025;-25
2022/04/07 07:05:25;;;;;;;1.73;1.50;;;;;;;9.65;74.33;98362.13;5021699;28;20518;-25
2022/04/07 07:07:50;;;;;;;1.98;1.40;;;;;;;9.66;74.07;98346.25;5014631;28;20041;-25
2022/04/07 07:10:28;;;;;;;1.70;1.40;;;;;;;9.71;73.88;98343.44;5016691;28;20022;-25
2022/04/07 07:12:54;;;;;;;1.20;1.10;;;;;;;9.72;73.48;98338.09;5017042;28;20025;-25
2022/04/07 07:15:23;;;;;;;1.33;1.23;;;;;;;9.77;73.44;98331.78;5023555;28;20386;-25
2022/04/07 07:17:48;;;;;;;1.38;1.27;;;;;;;9.82;73.42;98335.94;5027852;28;20025;-25
2022/04/07 07:20:14;;;;;;;1.48;1.00;;;;;;;9.84;73.87;98336.69;5030461;28;20017;-26
2022/04/07 07:22:40;;;;;;;1.10;1.10;;;;;;;9.90;73.94;98321.59;5025640;28;20025;-25
2022/04/07 07:25:07;;;;;;;1.10;1.10;;;;;;;9.93;73.49;98311.75;5019754;28;20581;-25
2022/04/07 07:27:46;;;;;;;2.30;1.02;;;;;;;9.97;73.15;98312.50;5019191;28;20044;-26
2022/04/07 07:30:15;;;;;;;1.02;1.02;;;;;;;9.99;73.07;98300.97;5017347;28;20033;-25
2022/04/07 07:32:42;;;;;;;1.30;1.20;;;;;;;10.03;72.84;98301.66;5020740;28;20018;-25
2022/04/07 07:35:08;;;;;;;0.85;0.85;;;;;;;10.05;72.79;98296.31;5022348;28;20549;-25
2022/04/07 07:37:34;;;;;;;4.22;1.25;;;;;;;10.07;72.40;98271.63;5029461;28;20029;-25
2022/04/07 07:40:07;;;;;;;1.85;1.10;;;;;;;10.09;72.02;98271.56;5029953;28;20025;-24
2022/04/07 07:42:33;;;;;;;1.05;1.02;;;;;;;10.14;72.21;98253.78;5027384;28;20079;-24
2022/04/07 07:44:59;;;;;;;0.88;0.88;;;;;;;10.18;71.56;98257.13;5028854;28;20025;-24
2022/04/07 07:47:25;;;;;;;1.00;1.00;;;;;;;10.21;71.75;98254.34;5027857;28;20055;-24
2022/04/07 07:49:50;;;;;;;1.40;1.30;;;;;;;10.25;71.68;98253.28;5028839;28;20028;-24
2022/04/07 07:52:15;;;;;;;1.13;1.08;;;;;;;10.29;71.37;98248.69;5027514;28;20034;-24
2022/04/07 07:54:41;;;;;;;2.15;1.00;;;;;;;10.31;71.03;98246.88;5026200;28;20533;-24
2022/04/07 07:57:07;;;;;;;1.45;0.98;;;;;;;10.34;70.86;98242.28;5022484;28;20025;-24
2022/04/07 07:59:32;;;;;;;0.80;0.80;;;;;;;10.39;70.61;98221.00;5019689;28;20108;-23
2022/04/07 08:01:57;;;;;;;1.13;1.10;;;;;;;10.44;70.65;98220.78;5013389;28;20018;-24
2022/04/07 08:04:23;;;;;;;1.60;1.00;;;;;;;10.49;70.35;98203.00;5017489;28;20032;-23
2022/04/07 08:06:49;;;;;;;1.23;1.10;;;;;;;10.57;70.71;98189.47;5016807;28;20029;-24
2022/04/07 08:09:15;;;;;;;1.00;0.90;;;;;;;10.64;70.87;98186.44;5014707;28;20025;-24
2022/04/07 08:11:41;;;;;;;1.10;1.10;;;;;;;10.72;70.66;98166.75;5017451;28;20018;-24
2022/04/07 08:14:07;;;;;;;1.35;1.10;;;;;;;10.81;70.58;98181.25;5018172;28;20029;-24
2022/04/07 08:16:33;;;;;;;3.40;1.20;;;;;;;10.88;70.01;98156.28;5019532;28;20029;-24
2022/04/07 08:18:59;;;;;;;2.75;1.38;;;;;;;11.00;69.99;98153.00;5017647;28;20025;-24
2022/04/07 08:21:24;;;;;;;1.15;0.93;;;;;;;11.07;69.75;98148.28;5015858;28;20540;-24
2022/04/07 08:23:50;;;;;;;2.70;1.30;;;;;;;11.21;70.01;98141.44;5016720;28;20479;-24
2022/04/07 08:26:15;;;;;;;1.33;1.23;;;;;;;11.27;69.14;98138.50;5013936;28;20029;-24
2022/04/07 08:28:41;;;;;;;1.75;1.15;;;;;;;11.34;68.91;98147.75;5018009;28;20028;-24
2022/04/07 08:31:07;;;;;;;1.40;1.30;;;;;;;11.41;68.51;98146.50;5016574;28;20113;-24
2022/04/07 08:33:32;;;;;;;1.20;0.90;;;;;;;11.46;66.77;98145.41;5019379;28;20030;-23
2022/04/07 08:35:58;;;;;;;1.33;1.23;;;;;;;11.51;67.12;98127.56;5018245;28;20058;-24
2022/04/07 08:38:23;;;;;;;2.30;1.20;;;;;;;11.53;66.70;98146.78;5015807;28;20022;-24
2022/04/07 08:40:53;;;;;;;1.40;1.30;;;;;;;11.55;66.35;98161.59;5017227;28;20025;-24
2022/04/07 08:43:18;;;;;;;1.77;1.10;;;;;;;11.59;65.80;98117.41;5016669;28;20025;-24
2022/04/07 08:45:45;;;;;;;1.60;1.50;;;;;;;11.64;65.96;98143.59;5020514;28;20395;-24
2022/04/07 08:48:11;;;;;;;1.50;1.05;;;;;;;11.72;65.32;98125.53;5027547;28;20030;-24
2022/04/07 08:50:43;;;;;;;1.52;1.10;;;;;;;11.83;65.87;98106.44;5026365;28;20022;-24
2022/04/07 08:53:11;;;;;;;3.00;1.52;;;;;;;11.93;65.80;98107.63;5026211;28;20024;-24
2022/04/07 08:55:37;;;;;;;2.53;1.10;;;;;;;12.08;66.26;98099.81;5022765;28;20087;-24
2022/04/07 08:58:03;;;;;;;1.42;0.90;;;;;;;12.15;64.83;98090.63;5027032;28;20030;-23
2022/04/07 09:00:28;;;;;;;0.98;0.90;;;;;;;12.24;64.06;98101.59;5028348;28;20034;-24
2022/04/07 09:02:54;;;;;;;4.75;1.10;;;;;;;12.33;63.66;98103.69;5020167;28;20070;-24
2022/04/07 09:05:23;;;;;;;1.50;1.10;;;;;;;12.43;63.79;98078.44;5020262;28;20036;-24
2022/04/07 09:07:51;;;;;;;1.85;1.33;;;;;;;12.59;64.31;98077.53;5017740;28;20037;-23
2022/04/07 09:10:21;;;;;;;2.38;1.75;;;;;;;12.63;63.59;98083.47;5015713;28;20017;-24
2022/04/07 09:12:46;;;;;;;1.20;1.00;;;;;;;12.69;62.56;98059.31;5016521;28;20392;-23
2022/04/07 09:15:13;;;;;;;2.83;1.20;;;;;;;12.78;62.54;98055.28;5020950;28;20030;-24
2022/04/07 09:18:05;;;;;;;2.08;1.17;;;;;;;12.87;63.03;98070.59;5016836;28;20169;-24
2022/04/07 09:20:30;;;;;;;1.83;1.02;;;;;;;12.91;61.57;98056.22;5034867;28;20052;-24
2022/04/07 09:23:00;;;;;;;1.00;0.90;;;;;;;12.90;61.36;98054.53;5014865;28;20026;-23
2022/04/07 09:25:26;;;;;;;2.45;1.33;;;;;;;12.93;61.44;98059.63;5018730;28;20033;-24
2022/04/07 09:27:53;;;;;;;1.20;1.20;;;;;;;12.94;61.34;98058.69;5016184;28;20502;-24
2022/04/07 09:30:20;;;;;;;3.13;1.00;;;;;;;12.94;60.54;98065.78;5021961;28;20022;-24
2022/04/07 09:32:45;;;;;;;1.83;0.80;;;;;;;12.89;60.04;98046.69;5021357;28;20018;-23
2022/04/07 09:35:12;;;;;;;1.00;0.80;;;;;;;12.87;60.30;98028.25;5023643;28;20037;-24
2022/04/07 09:37:41;;;;;;;1.00;0.88;;;;;;;12.94;60.06;98034.06;5020489;28;20022;-24
2022/04/07 09:40:12;;;;;;;0.93;0.77;;;;;;;12.90;60.42;98014.84;5024282;28;20142;-25
2022/04/07 09:42:39;;;;;;;0.70;0.70;;;;;;;12.90;59.90;98043.13;5018770;28;20024;-24
2022/04/07 09:45:07;;;;;;;0.93;0.60;;;;;;;12.82;59.52;98022.41;5020306;28;20398;-24
2022/04/07 09:47:53;;;;;;;0.70;0.60;;;;;;;12.73;59.94;98025.63;5024177;28;20033;-24
2022/04/07 09:50:30;;;;;;;1.45;0.85;;;;;;;12.76;59.89;98007.78;5020428;28;20547;-23
2022/04/07 09:53:04;;;;;;;1.70;0.70;;;;;;;12.72;59.70;98003.59;5020353;28;20108;-24
2022/04/07 09:55:32;;;;;;;2.72;0.70;;;;;;;12.73;60.02;97994.72;5018742;28;20079;-24
2022/04/07 09:58:00;;;;;;;0.68;0.60;;;;;;;12.78;59.89;98037.63;5021270;28;20037;-24
2022/04/07 10:00:26;;;;;;;1.73;0.70;;;;;;;12.74;59.96;98006.16;5019581;28;20018;-24
2022/04/07 10:02:53;;;;;;;2.75;0.73;;;;;;;12.74;59.93;97987.66;5021977;28;20022;-23
2022/04/07 10:05:19;;;;;;;0.80;0.80;;;;;;;12.79;60.44;97973.19;5024643;28;20439;-23
2022/04/07 10:07:45;;;;;;;2.60;0.90;;;;;;;12.80;60.58;97953.72;5011149;28;20029;-23
2022/04/07 10:10:11;;;;;;;0.95;0.70;;;;;;;12.86;60.94;97957.78;5025626;28;20022;-24
2022/04/07 10:12:38;;;;;;;0.63;0.63;;;;;;;12.83;60.93;97944.75;5020228;28;20032;-24
2022/04/07 10:15:03;;;;;;;1.45;0.75;;;;;;;12.81;60.53;97936.09;5000457;28;20033;-24
2022/04/07 10:17:29;;;;;;;2.45;0.80;;;;;;;12.84;60.68;97943.84;5021320;28;20026;-24
2022/04/07 10:19:57;;;;;;;0.70;0.70;;;;;;;12.85;60.67;97924.38;5023768;28;20058;-24
2022/04/07 10:22:49;;;;;;;0.90;0.90;;;;;;;12.87;60.29;97932.22;5019095;28;20014;-23
2022/04/07 10:25:15;;;;;;;1.58;0.80;;;;;;;12.89;60.23;97930.28;5022168;28;20028;-24
2022/04/07 10:27:55;;;;;;;0.60;0.52;;;;;;;12.83;59.48;97915.66;5019651;28;20108;-24
2022/04/07 10:30:21;;;;;;;2.17;0.50;;;;;;;12.80;59.31;97937.00;5022406;28;20068;-23
2022/04/07 10:32:49;;;;;;;1.10;0.40;;;;;;;12.75;59.72;97912.66;5021689;28;20427;-23
2022/04/07 10:35:31;;;;;;;1.65;0.63;;;;;;;12.69;59.80;97908.59;5027615;28;20033;-24
2022/04/07 10:37:58;;;;;;;0.60;0.60;;;;;;;12.70;60.04;97892.63;5023469;28;20033;-24
2022/04/07 10:40:49;;;;;;;0.90;0.57;;;;;;;12.76;60.00;97885.25;5020771;28;20029;-24
2022/04/07 10:43:14;;;;;;;0.70;0.70;;;;;;;12.76;60.02;97877.31;5018014;28;20033;-24
2022/04/07 10:46:06;;;;;;;0.40;0.40;;;;;;;12.74;59.87;97880.06;5017840;28;20022;-24
2022/04/07 10:48:33;;;;;;;3.33;0.47;;;;;;;12.77;59.85;97857.88;5018257;28;20045;-24
2022/04/07 10:51:05;;;;;;;1.27;0.30;;;;;;;12.75;60.03;97828.03;5020820;28;20049;-24
2022/04/07 10:53:38;;;;;;;4.40;0.40;;;;;;;12.72;60.33;97829.06;5017715;28;20119;-24
2022/04/07 10:56:11;;;;;;;2.47;0.60;;;;;;;12.78;60.35;97823.41;5021180;28;20062;-23
2022/04/07 10:58:50;;;;;;;1.48;0.98;;;;;;;12.80;60.36;97836.50;5023546;28;20032;-24
2022/04/07 11:01:28;;;;;;;1.23;0.57;;;;;;;12.77;60.51;97847.31;5019008;28;20029;-24
2022/04/07 11:04:19;;;;;;;1.60;0.45;;;;;;;12.81;60.56;97807.31;5018664;28;20049;-24
2022/04/07 11:09:55;;;;;;;2.50;0.30;;;;;;;12.80;60.88;97804.75;5018634;28;20022;-24
2022/04/07 11:12:28;;;;;;;3.08;0.43;;;;;;;12.80;61.02;97773.88;5021101;28;20024;-24
2022/04/07 11:15:03;;;;;;;0.30;0.30;;;;;;;12.82;60.99;97797.59;5019459;28;20021;-23
2022/04/07 11:17:47;;;;;;;1.15;0.50;;;;;;;12.85;61.18;97780.69;5019551;28;20033;-24
2022/04/07 11:20:26;;;;;;;0.50;0.45;;;;;;;12.86;61.14;97770.00;5019186;28;20399;-24
2022/04/07 11:23:08;;;;;;;0.30;0.30;;;;;;;12.88;61.13;97746.97;5022652;28;20421;-24
2022/04/07 11:25:37;;;;;;;0.95;0.50;;;;;;;12.88;61.77;97728.44;5021410;28;20427;-24
2022/04/07 11:28:17;;;;;;;1.60;0.43;;;;;;;12.90;61.60;97723.88;5014934;28;20033;-23
2022/04/07 11:31:00;;;;;;;0.73;0.45;;;;;;;12.88;61.40;97712.56;5019235;28;20025;-24
2022/04/07 11:33:27;;;;;;;1.45;0.63;;;;;;;12.94;61.85;97735.94;5016498;28;20733;-23
2022/04/07 11:35:58;;;;;;;1.80;0.60;;;;;;;12.99;61.92;97719.78;5017005;28;20018;-24
2022/04/07 11:38:43;;;;;;;1.23;0.50;;;;;;;12.97;62.29;97713.72;5023632;28;20072;-24
2022/04/07 11:41:10;;;;;;;1.42;0.43;;;;;;;13.01;62.46;97685.28;5018143;28;20076;-23
2022/04/07 11:43:47;;;;;;;3.28;0.60;;;;;;;13.05;63.39;97689.44;5020026;28;20080;-23